Bellevue, Michigan
Current Conditions -  °F | °C
As of 11:55 AM on Thursday 30 Oct 2014 (Local Time) from KFPK Reporting Station
Overcast Overcast  
Wind Chill: 43°   Ceiling: 4200
Heat Index: 47°   Visibility: 10mi
Dew Point: 38°   Wind: 8mph
Humidity: 71%   Direction: 180°S
Pressure: 30.11"   Gusts: NA
Location:  42.44°N, 85.02°W
Report Text: KFPK 301555Z AUTO 18007KT 10SM OVC042 08/03 A3011 RMK AO2 T00810032
Loading
Personal Weather Stations






























Interactive Weather Map
Tropical Storm Tracking
New forecast layout! Learn more

10-Day Weather Forecast

Advertisements
Track Severe Weather on mobile